Time;durP1;ratioP1;P1;durP2;ratioP2;P2;SDS_P1;SDS_P2;PMS_P1;PMS_P2;Temp;Humidity;BMP_temperature;BMP_pressure;BME280_temperature;BME280_humidity;BME280_pressure;Samples;Min_cycle;Max_cycle;Signal;HPM_P1;HPM_P2
2024/02/21 00:01:20;;;;;;;4.18;2.97;;;23.50;45.70;;;;;;6153019;28;82183;-60
2024/02/21 00:04:20;;;;;;;4.13;2.50;;;23.50;45.60;;;;;;6148615;28;80373;-62
2024/02/21 00:07:21;;;;;;;5.63;2.47;;;23.50;45.70;;;;;;6152716;28;81487;-59
2024/02/21 00:10:21;;;;;;;5.57;3.03;;;23.50;45.60;;;;;;6153576;28;80671;-59
2024/02/21 00:13:22;;;;;;;4.93;2.60;;;23.50;45.60;;;;;;6148650;28;81368;-60
2024/02/21 00:16:23;;;;;;;5.60;2.50;;;23.40;45.60;;;;;;6153857;28;81012;-59
2024/02/21 00:19:23;;;;;;;4.07;2.60;;;23.50;45.60;;;;;;6153625;28;81472;-58
2024/02/21 00:22:24;;;;;;;4.90;2.25;;;23.50;45.60;;;;;;6153920;28;80276;-59
2024/02/21 00:25:25;;;;;;;5.47;2.70;;;23.40;45.50;;;;;;6153510;28;81504;-61
2024/02/21 00:28:25;;;;;;;3.83;2.30;;;23.50;45.50;;;;;;6144242;28;80898;-61
2024/02/21 00:31:26;;;;;;;4.55;2.75;;;23.50;45.50;;;;;;6145727;28;80680;-61
2024/02/21 00:34:26;;;;;;;4.65;2.47;;;23.40;45.40;;;;;;6154415;28;80814;-62
2024/02/21 00:37:27;;;;;;;5.63;2.80;;;23.50;45.40;;;;;;6146395;28;85213;-61
2024/02/21 00:40:27;;;;;;;4.88;2.55;;;23.50;45.40;;;;;;6141713;28;80610;-61
2024/02/21 00:43:28;;;;;;;5.20;2.95;;;23.50;45.40;;;;;;6144163;28;81024;-61
2024/02/21 00:46:28;;;;;;;4.78;2.70;;;23.40;45.30;;;;;;6140686;28;80795;-59
2024/02/21 00:49:29;;;;;;;4.68;2.40;;;23.40;45.40;;;;;;6140450;28;80574;-57
2024/02/21 00:52:30;;;;;;;5.07;2.95;;;23.40;45.50;;;;;;6151015;28;80496;-60
2024/02/21 00:55:31;;;;;;;5.70;3.25;;;23.30;45.50;;;;;;6141223;28;81477;-59
2024/02/21 00:58:31;;;;;;;5.43;2.72;;;23.30;45.40;;;;;;6152257;28;80361;-59
2024/02/21 01:01:32;;;;;;;6.95;3.40;;;23.30;45.40;;;;;;6151493;28;80567;-59
2024/02/21 01:04:32;;;;;;;5.40;2.67;;;23.30;45.40;;;;;;6153979;28;80324;-61
2024/02/21 01:07:33;;;;;;;4.50;2.28;;;23.30;45.40;;;;;;6153190;28;80724;-61
2024/02/21 01:10:33;;;;;;;5.43;3.25;;;23.30;45.40;;;;;;6149684;28;80366;-61
2024/02/21 01:13:34;;;;;;;4.57;3.03;;;23.30;45.40;;;;;;6130894;28;80994;-61
2024/02/21 01:16:34;;;;;;;4.28;2.47;;;23.30;45.40;;;;;;6154156;28;80822;-61
2024/02/21 01:19:35;;;;;;;8.30;3.40;;;23.30;45.50;;;;;;6153168;28;81148;-61
2024/02/21 01:22:35;;;;;;;4.63;2.70;;;23.20;45.50;;;;;;6145573;28;80573;-61
2024/02/21 01:25:36;;;;;;;7.53;3.75;;;23.20;45.50;;;;;;6151802;28;80529;-60
2024/02/21 01:28:37;;;;;;;5.82;2.47;;;23.30;45.50;;;;;;6161905;28;81000;-61
2024/02/21 01:31:37;;;;;;;5.20;2.83;;;23.30;45.60;;;;;;6144406;28;80574;-62
2024/02/21 01:34:38;;;;;;;7.10;3.20;;;23.30;45.50;;;;;;6152965;28;80745;-62
2024/02/21 01:37:38;;;;;;;5.35;2.55;;;23.30;45.60;;;;;;6151757;28;80344;-62
2024/02/21 01:40:39;;;;;;;4.15;2.22;;;23.30;45.70;;;;;;6152389;28;80613;-58
2024/02/21 01:43:39;;;;;;;5.75;2.80;;;23.30;45.70;;;;;;6140587;28;80905;-58
2024/02/21 01:46:40;;;;;;;7.68;3.28;;;23.30;45.80;;;;;;6145074;28;81873;-57
2024/02/21 01:49:40;;;;;;;6.10;3.38;;;23.30;45.90;;;;;;6143209;28;80602;-58
2024/02/21 01:52:41;;;;;;;4.50;2.78;;;23.30;45.90;;;;;;6151405;28;81781;-57
2024/02/21 01:55:41;;;;;;;3.85;2.42;;;23.20;45.80;;;;;;6151234;28;80629;-57
2024/02/21 01:58:42;;;;;;;5.78;2.90;;;23.20;45.90;;;;;;6140855;28;81160;-59
2024/02/21 02:01:42;;;;;;;6.70;3.35;;;23.20;45.90;;;;;;6141062;28;80807;-59
2024/02/21 02:04:43;;;;;;;7.95;3.33;;;23.20;46.00;;;;;;6147872;28;80900;-58
2024/02/21 02:07:43;;;;;;;6.03;2.90;;;23.20;46.10;;;;;;6149646;28;80990;-59
2024/02/21 02:10:44;;;;;;;5.28;2.55;;;23.20;46.00;;;;;;6152955;28;80743;-60
2024/02/21 02:13:44;;;;;;;5.28;2.90;;;23.20;46.00;;;;;;6154097;28;80792;-60
2024/02/21 02:16:45;;;;;;;6.57;3.22;;;23.20;45.90;;;;;;6153180;28;80689;-59
2024/02/21 02:19:45;;;;;;;4.93;2.65;;;23.30;45.70;;;;;;6135521;28;80733;-59
2024/02/21 02:22:46;;;;;;;5.88;3.10;;;23.20;45.80;;;;;;6131780;28;80464;-58
2024/02/21 02:25:49;;;;;;;6.85;3.25;;;23.30;45.80;;;;;;6142681;28;80174;-59
2024/02/21 02:28:50;;;;;;;7.55;3.42;;;23.30;45.70;;;;;;6155681;28;82231;-59
2024/02/21 02:31:50;;;;;;;5.85;2.88;;;23.30;45.70;;;;;;6151259;28;80656;-59
2024/02/21 02:34:51;;;;;;;7.00;3.17;;;23.30;45.70;;;;;;6155606;28;80287;-59
2024/02/21 02:37:51;;;;;;;6.00;3.03;;;23.20;45.70;;;;;;6141829;28;80407;-59
2024/02/21 02:40:52;;;;;;;6.00;2.97;;;23.30;45.60;;;;;;6141521;28;80094;-58
2024/02/21 02:43:52;;;;;;;6.18;2.92;;;23.20;45.60;;;;;;6145377;28;80336;-59
2024/02/21 02:46:53;;;;;;;5.30;2.70;;;23.30;45.60;;;;;;6146823;28;80322;-59
2024/02/21 02:49:53;;;;;;;7.13;2.78;;;23.20;45.70;;;;;;6137391;28;83044;-60
2024/02/21 02:52:54;;;;;;;6.18;3.00;;;23.20;45.70;;;;;;6155465;28;81480;-61
2024/02/21 02:55:54;;;;;;;5.57;2.83;;;23.30;45.70;;;;;;6142454;28;81124;-60
2024/02/21 02:58:55;;;;;;;5.45;2.75;;;23.20;45.70;;;;;;6155352;28;80302;-59
2024/02/21 03:01:55;;;;;;;12.88;2.92;;;23.20;45.90;;;;;;6154881;28;80957;-60
2024/02/21 03:04:56;;;;;;;5.35;2.80;;;23.20;45.80;;;;;;6141819;28;81693;-59
2024/02/21 03:07:57;;;;;;;6.63;2.92;;;23.20;45.80;;;;;;6155433;28;80520;-59
2024/02/21 03:10:57;;;;;;;5.32;2.65;;;23.30;45.80;;;;;;6155064;28;80368;-60
2024/02/21 03:13:58;;;;;;;6.40;3.25;;;23.30;45.80;;;;;;6155498;28;80499;-59
2024/02/21 03:16:58;;;;;;;4.60;2.53;;;23.30;46.30;;;;;;6149503;28;80240;-59
2024/02/21 03:19:59;;;;;;;5.28;2.83;;;23.30;45.60;;;;;;6151676;28;81007;-60
2024/02/21 03:23:00;;;;;;;6.82;3.08;;;23.30;45.60;;;;;;6154781;28;80647;-60
2024/02/21 03:26:00;;;;;;;8.00;3.22;;;23.20;45.60;;;;;;6154717;28;82389;-61
2024/02/21 03:29:01;;;;;;;5.50;2.80;;;23.20;45.60;;;;;;6138930;28;81008;-59
2024/02/21 03:32:01;;;;;;;6.13;2.72;;;23.30;45.60;;;;;;6143068;28;82476;-63
2024/02/21 03:35:02;;;;;;;5.97;2.80;;;23.20;45.60;;;;;;6143617;28;80397;-63
2024/02/21 03:38:02;;;;;;;5.15;2.83;;;23.20;45.60;;;;;;6155245;28;80372;-63
2024/02/21 03:41:03;;;;;;;5.05;2.70;;;23.20;45.60;;;;;;6154838;28;80301;-62
2024/02/21 03:44:04;;;;;;;7.95;2.83;;;23.30;45.60;;;;;;6135323;28;80450;-63
2024/02/21 03:47:04;;;;;;;6.68;2.88;;;23.20;45.60;;;;;;6149440;28;80301;-62
2024/02/21 03:50:05;;;;;;;5.70;2.58;;;23.20;45.60;;;;;;6155035;28;81298;-60
2024/02/21 03:53:05;;;;;;;6.97;2.83;;;23.20;45.50;;;;;;6149035;28;80965;-60
2024/02/21 03:56:07;;;;;;;5.30;2.65;;;23.20;45.70;;;;;;6148103;28;80972;-59
2024/02/21 03:59:07;;;;;;;4.40;2.42;;;23.20;45.80;;;;;;6155480;28;80608;-60
2024/02/21 04:02:08;;;;;;;7.03;3.22;;;23.20;45.80;;;;;;6142775;28;80477;-60
2024/02/21 04:05:10;;;;;;;5.68;2.95;;;23.20;45.80;;;;;;6154795;28;81586;-60
2024/02/21 04:08:11;;;;;;;5.30;2.80;;;23.20;45.80;;;;;;6140723;28;81596;-59
2024/02/21 04:14:31;;;;;;;4.97;2.72;;;23.30;45.80;;;;;;6146237;28;81432;-60
2024/02/21 04:17:31;;;;;;;6.65;2.95;;;23.30;45.60;;;;;;6151506;28;80563;-59
2024/02/21 04:20:32;;;;;;;7.70;3.28;;;23.30;45.50;;;;;;6146107;28;81954;-59
2024/02/21 04:23:32;;;;;;;6.10;3.15;;;23.30;45.90;;;;;;6147090;28;81007;-59
2024/02/21 04:26:33;;;;;;;3.95;2.53;;;23.30;45.70;;;;;;6151728;28;81018;-60
2024/02/21 04:29:34;;;;;;;8.85;3.58;;;23.30;45.50;;;;;;6140826;28;81542;-61
2024/02/21 04:32:34;;;;;;;5.28;2.58;;;23.40;45.50;;;;;;6150534;28;81528;-61
2024/02/21 04:35:35;;;;;;;6.78;3.05;;;23.40;45.20;;;;;;6152375;28;80744;-60
2024/02/21 04:38:35;;;;;;;6.82;2.95;;;23.50;45.30;;;;;;6151559;28;81495;-60
2024/02/21 04:41:36;;;;;;;6.18;2.70;;;23.50;45.40;;;;;;6152103;28;80840;-60
2024/02/21 04:44:37;;;;;;;5.72;2.60;;;23.50;45.30;;;;;;6141753;28;80646;-59
2024/02/21 04:47:38;;;;;;;7.10;2.75;;;23.50;45.10;;;;;;6149397;28;80826;-59
2024/02/21 04:50:38;;;;;;;4.18;2.60;;;23.50;45.20;;;;;;6152259;28;80594;-57
2024/02/21 04:53:39;;;;;;;7.05;2.55;;;23.50;45.20;;;;;;6150448;28;84236;-59
2024/02/21 04:56:39;;;;;;;8.60;3.65;;;23.60;45.40;;;;;;6153451;28;80869;-59
2024/02/21 04:59:40;;;;;;;4.68;2.60;;;23.60;45.20;;;;;;6152386;28;80255;-59
2024/02/21 05:02:40;;;;;;;5.72;2.80;;;23.60;45.30;;;;;;6152423;28;81673;-61
2024/02/21 05:05:41;;;;;;;6.45;2.78;;;23.60;45.10;;;;;;6153180;28;80443;-50
2024/02/21 05:08:41;;;;;;;6.70;2.45;;;23.60;45.00;;;;;;6141714;28;83438;-49
2024/02/21 05:11:42;;;;;;;7.05;2.67;;;23.70;44.80;;;;;;6142147;28;80401;-50
2024/02/21 05:14:42;;;;;;;6.53;2.53;;;23.60;44.60;;;;;;6150303;28;81185;-54
2024/02/21 05:17:43;;;;;;;4.65;2.45;;;23.70;44.80;;;;;;6151220;28;81935;-51
2024/02/21 05:20:44;;;;;;;6.03;2.67;;;23.70;45.00;;;;;;6139148;28;80781;-60
2024/02/21 05:23:44;;;;;;;5.55;2.47;;;23.70;45.00;;;;;;6142521;28;80544;-65
2024/02/21 05:26:44;;;;;;;6.25;2.25;;;23.70;45.40;;;;;;6149124;28;81207;-61
2024/02/21 05:29:45;;;;;;;8.02;2.50;;;23.70;45.40;;;;;;6151354;28;80438;-60
2024/02/21 05:32:46;;;;;;;3.42;2.22;;;23.70;45.20;;;;;;6150620;28;82088;-60
2024/02/21 05:35:46;;;;;;;3.83;2.25;;;23.70;45.00;;;;;;6139290;28;85729;-62
2024/02/21 05:38:47;;;;;;;5.50;2.60;;;23.80;44.90;;;;;;6137968;28;83065;-61
2024/02/21 05:41:47;;;;;;;4.85;2.42;;;23.80;44.90;;;;;;6140615;28;81255;-61
2024/02/21 05:44:47;;;;;;;7.20;2.40;;;23.70;45.00;;;;;;6131042;28;81307;-62
2024/02/21 05:47:48;;;;;;;9.82;2.85;;;23.70;45.50;;;;;;6132581;28;80449;-62
2024/02/21 05:50:48;;;;;;;8.02;2.33;;;23.70;46.10;;;;;;6139896;28;80845;-63
2024/02/21 05:53:49;;;;;;;5.55;2.42;;;23.80;46.40;;;;;;6146634;28;80422;-65
2024/02/21 05:56:50;;;;;;;4.85;2.20;;;23.80;46.60;;;;;;6146275;28;80736;-61
2024/02/21 05:59:50;;;;;;;5.88;2.17;;;23.80;47.00;;;;;;6146159;28;81018;-64
2024/02/21 06:02:51;;;;;;;3.13;2.03;;;23.80;47.70;;;;;;6151574;28;80414;-62
2024/02/21 06:05:51;;;;;;;6.18;2.25;;;23.80;47.20;;;;;;6147263;28;81741;-59
2024/02/21 06:08:52;;;;;;;3.72;2.28;;;23.80;47.30;;;;;;6152229;28;81081;-59
2024/02/21 06:11:52;;;;;;;6.72;2.58;;;23.80;47.10;;;;;;6152020;28;81328;-60
2024/02/21 06:14:53;;;;;;;10.15;2.35;;;23.80;47.30;;;;;;6138431;28;80311;-57
2024/02/21 06:17:53;;;;;;;8.27;1.98;;;23.80;47.20;;;;;;6161271;28;85848;-55
2024/02/21 06:20:54;;;;;;;4.45;2.15;;;23.80;47.50;;;;;;6156486;28;81543;-58
2024/02/21 06:23:54;;;;;;;7.22;2.15;;;23.80;47.00;;;;;;6141984;28;82768;-58
2024/02/21 06:26:55;;;;;;;6.53;2.40;;;23.80;47.00;;;;;;6140994;28;80433;-58
2024/02/21 06:29:55;;;;;;;3.92;2.10;;;23.80;47.00;;;;;;6147264;28;81462;-57
2024/02/21 06:32:56;;;;;;;5.50;2.72;;;23.80;46.40;;;;;;6140446;28;81433;-57
2024/02/21 06:35:56;;;;;;;6.60;2.60;;;23.70;46.50;;;;;;6138932;28;82367;-59
2024/02/21 06:38:57;;;;;;;5.68;2.47;;;23.70;46.20;;;;;;6150356;28;83106;-53
2024/02/21 06:41:57;;;;;;;5.63;2.42;;;23.70;46.10;;;;;;6145789;28;82885;-54
2024/02/21 06:44:58;;;;;;;5.03;2.22;;;23.70;46.20;;;;;;6148183;28;85114;-57
2024/02/21 06:47:58;;;;;;;4.88;1.90;;;23.60;46.40;;;;;;6135982;28;81620;-59
2024/02/21 06:50:59;;;;;;;7.18;2.70;;;23.60;46.30;;;;;;6148036;28;80511;-60
2024/02/21 06:53:59;;;;;;;6.63;2.67;;;23.60;46.00;;;;;;6147993;28;83320;-59
2024/02/21 06:57:00;;;;;;;4.70;2.05;;;23.60;45.80;;;;;;6144984;28;80711;-57
2024/02/21 07:00:00;;;;;;;4.80;2.38;;;23.60;45.60;;;;;;6151024;28;80551;-58
2024/02/21 07:03:02;;;;;;;5.85;2.55;;;23.60;45.50;;;;;;6147237;28;81614;-59
2024/02/21 07:06:03;;;;;;;5.38;2.20;;;23.60;45.60;;;;;;6151754;28;87583;-58
2024/02/21 07:09:03;;;;;;;6.30;2.30;;;23.60;45.30;;;;;;6151591;28;80445;-57
2024/02/21 07:12:04;;;;;;;6.25;2.50;;;23.60;45.40;;;;;;6151643;28;80834;-58
2024/02/21 07:15:05;;;;;;;5.05;2.30;;;23.60;45.40;;;;;;6154344;28;80401;-57
2024/02/21 07:18:05;;;;;;;4.18;2.38;;;23.50;45.20;;;;;;6144066;28;80938;-57
2024/02/21 07:21:06;;;;;;;4.13;2.45;;;23.60;45.30;;;;;;6146017;28;81099;-54
2024/02/21 07:24:06;;;;;;;5.28;2.10;;;23.60;45.00;;;;;;6155401;28;81542;-54
2024/02/21 07:27:07;;;;;;;9.20;2.58;;;23.60;44.80;;;;;;6147128;28;81193;-57
2024/02/21 07:30:07;;;;;;;3.85;1.98;;;23.60;44.80;;;;;;6142632;28;80882;-58
2024/02/21 07:33:08;;;;;;;4.15;2.10;;;23.60;44.90;;;;;;6153863;28;80359;-59
2024/02/21 07:36:08;;;;;;;6.93;2.63;;;23.60;44.80;;;;;;6154213;28;80407;-60
2024/02/21 07:39:09;;;;;;;4.70;2.67;;;23.70;44.50;;;;;;6154952;28;80568;-59
2024/02/21 07:42:09;;;;;;;5.45;2.20;;;23.70;44.50;;;;;;6155260;28;80412;-59
2024/02/21 07:45:10;;;;;;;5.75;2.38;;;23.70;44.50;;;;;;6149526;28;80917;-59
2024/02/21 07:48:11;;;;;;;7.18;2.25;;;23.70;44.40;;;;;;6140539;28;80605;-56
2024/02/21 07:51:11;;;;;;;3.65;2.35;;;23.70;44.50;;;;;;6154108;28;80535;-58
2024/02/21 07:54:12;;;;;;;4.35;2.30;;;23.70;44.30;;;;;;6154429;28;82525;-57
2024/02/21 07:57:13;;;;;;;4.25;1.95;;;23.70;44.30;;;;;;6155386;28;80950;-56
2024/02/21 08:00:19;;;;;;;6.38;2.28;;;23.70;44.00;;;;;;6145959;28;80295;-57
2024/02/21 08:03:20;;;;;;;4.68;2.30;;;23.70;43.90;;;;;;6152851;28;81161;-57
2024/02/21 08:06:21;;;;;;;6.20;2.28;;;23.70;44.00;;;;;;6149764;28;80817;-57
2024/02/21 08:09:21;;;;;;;6.07;2.72;;;23.80;43.80;;;;;;6145935;28;81233;-59
2024/02/21 08:12:22;;;;;;;6.70;2.50;;;23.80;43.70;;;;;;6152921;28;81006;-58
2024/02/21 08:15:25;;;;;;;4.40;1.95;;;23.80;43.60;;;;;;6151598;28;80679;-58
2024/02/21 08:18:25;;;;;;;6.30;2.53;;;23.80;43.60;;;;;;6145661;28;83319;-59
2024/02/21 08:21:26;;;;;;;8.82;2.95;;;23.80;43.70;;;;;;6138254;28;83669;-58
2024/02/21 08:24:26;;;;;;;6.90;3.13;;;23.80;43.60;;;;;;6152678;28;83127;-58
2024/02/21 08:27:27;;;;;;;6.32;2.58;;;23.70;42.90;;;;;;6148163;28;81148;-56
2024/02/21 08:30:27;;;;;;;4.53;2.20;;;23.70;43.20;;;;;;6148859;28;81295;-58
2024/02/21 08:33:29;;;;;;;7.68;2.35;;;23.60;43.60;;;;;;6152580;28;80823;-58
2024/02/21 08:36:30;;;;;;;5.40;2.15;;;23.60;43.10;;;;;;6144622;28;82899;-57
2024/02/21 08:39:30;;;;;;;6.90;2.60;;;23.50;43.50;;;;;;6153127;28;80328;-60
2024/02/21 08:42:31;;;;;;;5.63;2.53;;;23.50;43.30;;;;;;6142349;28;83741;-58
2024/02/21 08:45:31;;;;;;;3.83;1.80;;;23.40;42.90;;;;;;6145201;28;81817;-58
2024/02/21 08:48:32;;;;;;;6.28;2.42;;;23.40;42.70;;;;;;6140124;28;83796;-53
2024/02/21 08:51:32;;;;;;;5.32;2.47;;;23.40;42.30;;;;;;6147368;28;81047;-59
2024/02/21 08:54:33;;;;;;;5.45;2.22;;;23.30;42.70;;;;;;6146151;28;81513;-57
2024/02/21 08:57:36;;;;;;;5.70;2.67;;;23.30;43.20;;;;;;6151115;28;80660;-55
2024/02/21 09:00:36;;;;;;;7.47;3.00;;;23.40;42.50;;;;;;6151436;28;81246;-56
2024/02/21 09:03:37;;;;;;;7.25;2.55;;;23.30;42.20;;;;;;6155107;28;80585;-57
2024/02/21 09:06:41;;;;;;;9.18;2.83;;;23.30;42.00;;;;;;6154212;28;80367;-59
2024/02/21 09:09:42;;;;;;;7.22;3.22;;;23.20;40.70;;;;;;6150020;28;81647;-59
2024/02/21 09:12:43;;;;;;;5.53;2.55;;;23.20;41.30;;;;;;6143313;28;80906;-59
2024/02/21 09:15:44;;;;;;;8.55;3.22;;;23.20;40.30;;;;;;6150788;28;80575;-59
2024/02/21 09:18:44;;;;;;;8.05;3.42;;;23.20;41.00;;;;;;6154021;28;81396;-62
2024/02/21 09:21:45;;;;;;;8.38;2.88;;;23.20;41.60;;;;;;6149503;28;80268;-63
2024/02/21 09:24:45;;;;;;;7.43;2.70;;;23.20;41.20;;;;;;6148262;28;81729;-63
2024/02/21 09:27:46;;;;;;;6.70;2.80;;;23.20;39.90;;;;;;6152840;28;81085;-63
2024/02/21 09:30:46;;;;;;;8.63;3.30;;;23.10;39.90;;;;;;6149534;28;81232;-63
2024/02/21 09:33:47;;;;;;;6.80;2.83;;;23.10;40.60;;;;;;6149396;28;80265;-63
2024/02/21 09:36:47;;;;;;;11.10;3.80;;;23.10;40.50;;;;;;6155092;28;82240;-57
2024/02/21 09:39:48;;;;;;;11.60;3.53;;;23.10;39.90;;;;;;6145181;28;80049;-59
2024/02/21 09:42:48;;;;;;;7.32;2.78;;;23.10;40.50;;;;;;6153543;28;81342;-58
2024/02/21 09:45:49;;;;;;;8.38;3.10;;;23.10;40.50;;;;;;6152028;28;80227;-59
2024/02/21 09:48:49;;;;;;;7.20;3.08;;;23.10;40.90;;;;;;6133804;28;83287;-56
2024/02/21 09:51:50;;;;;;;5.95;2.50;;;23.20;39.60;;;;;;6146674;28;80982;-57
2024/02/21 09:54:52;;;;;;;6.82;2.75;;;23.20;39.50;;;;;;6145976;28;81797;-58
2024/02/21 09:57:52;;;;;;;8.05;3.35;;;23.10;39.30;;;;;;6145240;28;80330;-58
2024/02/21 10:00:53;;;;;;;7.18;2.97;;;23.20;40.30;;;;;;6153463;28;81586;-59
2024/02/21 10:03:53;;;;;;;5.28;2.08;;;23.30;40.40;;;;;;6151879;28;80240;-58
2024/02/21 10:06:54;;;;;;;6.35;2.35;;;23.40;40.20;;;;;;6145492;28;81547;-58
2024/02/21 10:09:55;;;;;;;5.25;2.13;;;23.50;40.50;;;;;;6143686;28;80391;-57
2024/02/21 10:12:55;;;;;;;5.10;2.22;;;23.50;40.70;;;;;;6153010;28;80772;-59
2024/02/21 10:15:56;;;;;;;4.72;2.40;;;23.60;40.70;;;;;;6152693;28;83235;-61
2024/02/21 10:18:56;;;;;;;6.50;2.67;;;23.60;40.70;;;;;;6143807;28;80753;-60
2024/02/21 10:21:57;;;;;;;6.38;2.50;;;23.60;40.70;;;;;;6145320;28;81210;-61
2024/02/21 10:24:57;;;;;;;5.15;2.67;;;23.70;40.80;;;;;;6151236;28;80873;-60
2024/02/21 10:27:58;;;;;;;4.70;2.25;;;23.70;40.80;;;;;;6153143;28;80479;-62
2024/02/21 10:30:58;;;;;;;6.57;2.88;;;23.80;40.90;;;;;;6157976;28;81708;-61
2024/02/21 10:33:59;;;;;;;5.85;2.70;;;23.80;40.80;;;;;;6156684;28;80382;-59
2024/02/21 10:37:00;;;;;;;8.13;3.03;;;23.80;40.80;;;;;;6154492;28;80299;-59
2024/02/21 10:40:00;;;;;;;4.82;2.15;;;23.80;40.60;;;;;;6156928;28;80725;-59
2024/02/21 10:43:01;;;;;;;5.43;2.17;;;23.90;40.70;;;;;;6148553;28;81396;-59
2024/02/21 10:46:04;;;;;;;6.20;1.95;;;24.00;41.10;;;;;;6149218;28;80843;-59
2024/02/21 10:49:06;;;;;;;6.18;2.15;;;24.00;40.90;;;;;;6145491;28;81420;-59
2024/02/21 10:52:06;;;;;;;6.07;2.13;;;24.00;40.80;;;;;;6152107;28;85399;-59
2024/02/21 10:55:07;;;;;;;8.10;2.55;;;24.00;40.90;;;;;;6144977;28;87382;-59
2024/02/21 10:58:07;;;;;;;4.03;2.00;;;24.10;40.80;;;;;;6179148;28;80856;-59
2024/02/21 11:01:08;;;;;;;4.93;2.00;;;24.20;40.80;;;;;;6153699;28;81453;-59
2024/02/21 11:04:08;;;;;;;4.72;2.28;;;24.20;40.50;;;;;;6149265;28;80958;-59
2024/02/21 11:07:09;;;;;;;5.13;2.47;;;24.20;40.70;;;;;;6153322;28;80680;-59
2024/02/21 11:10:09;;;;;;;3.97;1.90;;;24.30;40.50;;;;;;6147684;28;80311;-63
2024/02/21 11:13:10;;;;;;;5.07;2.33;;;24.20;40.60;;;;;;6146570;28;80615;-64
2024/02/21 11:16:10;;;;;;;4.68;2.05;;;24.30;40.50;;;;;;6141252;28;80916;-63
2024/02/21 11:19:11;;;;;;;5.03;2.20;;;24.30;40.70;;;;;;6149503;28;81486;-63
2024/02/21 11:22:12;;;;;;;4.13;2.08;;;24.30;40.80;;;;;;6154082;28;81614;-62
2024/02/21 11:25:12;;;;;;;5.50;2.15;;;24.30;40.80;;;;;;6156631;28;80622;-62
2024/02/21 11:28:13;;;;;;;3.75;2.03;;;24.30;41.10;;;;;;6146654;28;80403;-59
2024/02/21 11:31:16;;;;;;;4.75;2.42;;;24.30;41.00;;;;;;6150762;28;83413;-58
2024/02/21 11:34:17;;;;;;;5.55;1.88;;;24.20;40.90;;;;;;6154134;28;82186;-58
2024/02/21 11:37:17;;;;;;;7.80;2.53;;;24.20;41.40;;;;;;6156761;28;85268;-58
2024/02/21 11:40:18;;;;;;;5.40;2.10;;;24.30;41.10;;;;;;6156100;28;81892;-59
2024/02/21 11:43:18;;;;;;;9.27;2.63;;;24.30;41.50;;;;;;6151543;28;80393;-58
2024/02/21 11:46:19;;;;;;;5.47;1.90;;;24.30;41.60;;;;;;6151510;28;81830;-56
2024/02/21 11:49:19;;;;;;;4.43;1.95;;;24.40;41.70;;;;;;6139862;28;81129;-57
2024/02/21 11:52:21;;;;;;;4.15;2.22;;;24.30;41.60;;;;;;6152262;28;80347;-57
2024/02/21 11:55:21;;;;;;;2.50;2.13;;;24.30;41.80;;;;;;6152365;28;80515;-56
2024/02/21 11:58:22;;;;;;;2.42;1.60;;;24.20;41.60;;;;;;6153018;28;81046;-55
2024/02/21 12:01:23;;;;;;;5.35;2.00;;;24.20;41.80;;;;;;6152800;28;80257;-53
2024/02/21 12:04:23;;;;;;;4.80;1.92;;;24.20;42.20;;;;;;6149466;28;80706;-57
2024/02/21 12:07:24;;;;;;;4.75;2.45;;;24.20;42.40;;;;;;6152055;28;80750;-56
2024/02/21 12:10:25;;;;;;;4.40;1.90;;;24.30;42.20;;;;;;6152003;28;80585;-56
2024/02/21 12:13:25;;;;;;;3.75;1.85;;;24.30;42.20;;;;;;6151198;28;80366;-56
2024/02/21 12:16:26;;;;;;;6.55;2.63;;;24.30;42.40;;;;;;6151442;28;84473;-58
2024/02/21 12:19:26;;;;;;;4.78;1.95;;;24.30;42.40;;;;;;6151267;28;81861;-57
2024/02/21 12:22:27;;;;;;;6.68;2.08;;;24.30;42.70;;;;;;6141652;28;80359;-61
2024/02/21 12:25:28;;;;;;;5.70;1.67;;;24.30;42.70;;;;;;6150869;28;80791;-60
2024/02/21 12:28:29;;;;;;;2.67;1.98;;;24.30;43.00;;;;;;6154043;28;80316;-59
2024/02/21 12:31:29;;;;;;;3.60;2.08;;;24.30;42.70;;;;;;6145325;28;80515;-61
2024/02/21 12:34:31;;;;;;;3.53;1.95;;;24.30;42.70;;;;;;6146498;28;83361;-60
2024/02/21 12:37:35;;;;;;;4.78;2.35;;;24.20;42.80;;;;;;6148850;28;80809;-60
2024/02/21 12:40:35;;;;;;;3.33;1.80;;;24.30;42.90;;;;;;6155688;28;80553;-61
2024/02/21 12:43:36;;;;;;;6.60;1.77;;;24.20;42.90;;;;;;6152840;28;80413;-61
2024/02/21 12:46:36;;;;;;;3.28;1.95;;;24.20;43.00;;;;;;6138333;28;81401;-62
2024/02/21 12:49:37;;;;;;;6.05;2.08;;;24.20;43.00;;;;;;6144577;28;85342;-62
2024/02/21 12:52:37;;;;;;;5.00;1.90;;;24.10;43.10;;;;;;6152356;28;80452;-60
2024/02/21 12:55:38;;;;;;;4.05;1.65;;;24.20;43.20;;;;;;6151909;28;80357;-63
2024/02/21 12:58:39;;;;;;;4.05;1.90;;;24.10;43.20;;;;;;6149680;28;81528;-58
2024/02/21 13:01:39;;;;;;;3.42;1.90;;;24.10;43.20;;;;;;6135631;28;82092;-58
2024/02/21 13:04:41;;;;;;;4.68;1.60;;;24.10;43.50;;;;;;6153203;28;82293;-56
2024/02/21 13:07:41;;;;;;;6.40;1.90;;;24.10;43.50;;;;;;6150928;28;80480;-58
2024/02/21 13:10:42;;;;;;;6.13;2.75;;;24.10;43.60;;;;;;6147915;28;85987;-57
2024/02/21 13:13:42;;;;;;;8.35;2.83;;;24.10;43.10;;;;;;6148039;28;81279;-54
2024/02/21 13:16:43;;;;;;;5.80;2.40;;;24.10;42.20;;;;;;6147501;28;80465;-53
2024/02/21 13:19:43;;;;;;;5.15;2.40;;;23.90;41.20;;;;;;6153065;28;81117;-52
2024/02/21 13:22:44;;;;;;;6.50;2.45;;;23.80;41.00;;;;;;6151183;28;80496;-52
2024/02/21 13:25:45;;;;;;;5.22;2.78;;;23.70;40.80;;;;;;6151271;28;80609;-55
2024/02/21 13:28:47;;;;;;;5.57;2.53;;;23.60;40.50;;;;;;6149383;28;80614;-55
2024/02/21 13:31:49;;;;;;;4.78;2.35;;;23.60;40.40;;;;;;6145990;28;80905;-55
2024/02/21 13:34:52;;;;;;;7.18;2.80;;;23.50;40.40;;;;;;6148982;28;80525;-52
2024/02/21 13:37:52;;;;;;;4.68;2.25;;;23.40;40.50;;;;;;6143246;28;80795;-52
2024/02/21 13:40:53;;;;;;;5.30;2.50;;;23.40;40.40;;;;;;6138682;28;81689;-56
2024/02/21 13:43:54;;;;;;;6.30;2.67;;;23.30;40.40;;;;;;6141524;28;80410;-53
2024/02/21 13:46:55;;;;;;;7.35;2.88;;;23.30;40.50;;;;;;6136317;28;86995;-53
2024/02/21 13:49:55;;;;;;;6.07;3.22;;;23.20;40.90;;;;;;6146791;28;82279;-54
2024/02/21 13:52:56;;;;;;;11.57;3.38;;;23.20;41.60;;;;;;6139520;28;80412;-55
2024/02/21 13:55:57;;;;;;;27.33;3.70;;;23.20;41.00;;;;;;6152867;28;80884;-58
2024/02/21 13:58:57;;;;;;;14.85;3.05;;;23.10;41.20;;;;;;6141111;28;82318;-58
2024/02/21 14:01:58;;;;;;;9.88;3.10;;;23.10;41.20;;;;;;6144188;28;80501;-59
2024/02/21 14:04:59;;;;;;;10.38;3.22;;;23.00;41.30;;;;;;6153079;28;80364;-58
2024/02/21 14:08:00;;;;;;;18.63;3.28;;;23.10;41.80;;;;;;6153556;28;80690;-60
2024/02/21 14:11:00;;;;;;;7.28;3.38;;;23.00;42.00;;;;;;6152995;28;81185;-58
2024/02/21 14:14:01;;;;;;;10.70;3.33;;;23.00;42.00;;;;;;6146225;28;82558;-59
2024/02/21 14:17:01;;;;;;;6.88;3.35;;;23.00;42.10;;;;;;6151464;28;80633;-59
2024/02/21 14:20:02;;;;;;;6.93;3.45;;;23.00;41.80;;;;;;6150840;28;82679;-58
2024/02/21 14:23:02;;;;;;;11.45;3.38;;;23.00;41.80;;;;;;6155964;28;80563;-59
2024/02/21 14:26:03;;;;;;;8.30;3.60;;;23.00;41.90;;;;;;6158491;28;83891;-59
2024/02/21 14:29:03;;;;;;;6.22;2.92;;;23.00;41.90;;;;;;6144386;28;82683;-59
2024/02/21 14:32:05;;;;;;;9.15;3.20;;;23.00;42.00;;;;;;6147291;28;80777;-54
2024/02/21 14:35:06;;;;;;;8.07;3.67;;;22.90;41.90;;;;;;6160333;28;80707;-55
2024/02/21 14:38:06;;;;;;;13.45;3.70;;;22.90;41.70;;;;;;6153195;28;80561;-53
2024/02/21 14:41:07;;;;;;;10.38;4.22;;;22.80;41.50;;;;;;6155315;28;81166;-54
2024/02/21 14:44:09;;;;;;;18.95;4.57;;;22.80;41.60;;;;;;6147716;28;83155;-53
2024/02/21 14:47:10;;;;;;;18.50;4.32;;;22.80;41.80;;;;;;6126856;28;81460;-53
2024/02/21 14:50:10;;;;;;;21.17;4.28;;;22.80;41.80;;;;;;6138895;28;80681;-60
2024/02/21 14:53:11;;;;;;;17.13;4.18;;;22.80;42.30;;;;;;6150657;28;80774;-59
2024/02/21 14:56:11;;;;;;;21.90;5.30;;;22.80;42.20;;;;;;6150173;28;81512;-60
2024/02/21 14:59:12;;;;;;;16.65;4.65;;;22.80;42.60;;;;;;6148433;28;81542;-59
2024/02/21 15:02:12;;;;;;;17.08;3.92;;;22.80;42.40;;;;;;6151893;28;83888;-58
2024/02/21 15:05:14;;;;;;;24.23;4.47;;;22.70;42.10;;;;;;6140197;28;80649;-59
2024/02/21 15:08:16;;;;;;;13.32;4.53;;;22.70;42.30;;;;;;6140697;28;80601;-59
2024/02/21 15:11:17;;;;;;;13.27;4.25;;;22.70;42.50;;;;;;6149361;28;80898;-57
2024/02/21 15:14:18;;;;;;;22.05;3.70;;;22.70;42.50;;;;;;6136966;28;80624;-49
2024/02/21 15:17:18;;;;;;;8.95;3.88;;;22.70;42.60;;;;;;6144306;28;80948;-59
2024/02/21 15:20:19;;;;;;;16.70;4.45;;;22.60;42.50;;;;;;6149674;28;80406;-53
2024/02/21 15:23:20;;;;;;;13.45;4.22;;;22.60;43.00;;;;;;6151016;28;80921;-57
2024/02/21 15:26:20;;;;;;;26.42;4.55;;;22.70;43.50;;;;;;6150906;28;80518;-57
2024/02/21 15:29:23;;;;;;;12.60;4.50;;;22.80;43.60;;;;;;6136874;28;80847;-54
2024/02/21 15:32:23;;;;;;;19.88;4.13;;;22.90;43.90;;;;;;6151578;28;80887;-57
2024/02/21 15:35:24;;;;;;;13.25;3.83;;;22.90;43.80;;;;;;6151796;28;81718;-55
2024/02/21 15:38:25;;;;;;;13.35;3.97;;;22.90;44.00;;;;;;6151287;28;80564;-57
2024/02/21 15:41:25;;;;;;;22.27;4.85;;;22.90;44.00;;;;;;6126462;28;80909;-58